Time;durP1;ratioP1;P1;durP2;ratioP2;P2;SDS_P1;SDS_P2;PMS_P1;PMS_P2;Temp;Humidity;BMP_temperature;BMP_pressure;BME280_temperature;BME280_humidity;BME280_pressure;Samples;Min_cycle;Max_cycle;Signal;HPM_P1;HPM_P2
2021/01/08 00:00:23;;;;;;;7.10;1.73;;;1.40;88.10;;;;;;4980406;28;20033;-88
2021/01/08 00:02:49;;;;;;;2.63;1.50;;;1.50;88.10;;;;;;4984377;28;20332;-89
2021/01/08 00:05:16;;;;;;;3.10;1.07;;;1.50;87.90;;;;;;5001027;28;20026;-89
2021/01/08 00:07:42;;;;;;;3.10;1.63;;;1.50;87.70;;;;;;4983967;28;20049;-87
2021/01/08 00:10:09;;;;;;;4.23;1.60;;;1.60;87.60;;;;;;5000485;28;20439;-89
2021/01/08 00:12:36;;;;;;;6.73;1.53;;;1.60;87.50;;;;;;4973812;28;20329;-88
2021/01/08 00:15:07;;;;;;;2.63;1.13;;;1.60;87.50;;;;;;4965120;28;20046;-90
2021/01/08 00:17:33;;;;;;;3.05;0.57;;;1.50;87.50;;;;;;4997629;28;20029;-89
2021/01/08 00:20:00;;;;;;;18.23;2.07;;;1.50;87.60;;;;;;4999254;28;20334;-89
2021/01/08 00:22:26;;;;;;;3.33;1.13;;;1.50;87.70;;;;;;4965058;28;20041;-89
2021/01/08 00:24:53;;;;;;;5.83;2.90;;;1.40;87.70;;;;;;4994188;28;20037;-90
2021/01/08 00:27:22;;;;;;;4.00;1.37;;;1.40;87.90;;;;;;4976299;28;20328;-90
2021/01/08 00:29:49;;;;;;;3.33;1.20;;;1.40;88.00;;;;;;5000181;28;20414;-89
2021/01/08 00:35:36;;;;;;;5.60;2.23;;;1.30;88.10;;;;;;5010600;28;20029;-90
2021/01/08 00:38:03;;;;;;;4.63;1.03;;;1.30;88.20;;;;;;4976268;28;20057;-89
2021/01/08 00:40:29;;;;;;;2.37;0.83;;;1.20;88.30;;;;;;5016539;28;20040;-89
2021/01/08 00:42:56;;;;;;;0.83;0.73;;;1.20;88.40;;;;;;4982713;28;20026;-89
2021/01/08 00:45:22;;;;;;;2.20;0.63;;;1.20;89.10;;;;;;4960855;28;20047;-89
2021/01/08 00:47:49;;;;;;;2.30;1.50;;;1.20;88.30;;;;;;4983695;28;20111;-89
2021/01/08 00:50:16;;;;;;;4.47;2.13;;;1.30;88.30;;;;;;4997084;28;20048;-89
2021/01/08 00:52:42;;;;;;;2.60;0.60;;;1.20;88.20;;;;;;4965775;28;20046;-89
2021/01/08 00:55:09;;;;;;;1.30;0.60;;;1.30;88.20;;;;;;4980434;28;20444;-88
2021/01/08 00:57:35;;;;;;;6.30;2.37;;;1.30;88.10;;;;;;4966297;28;20038;-88
2021/01/08 01:00:04;;;;;;;1.30;0.80;;;1.30;88.00;;;;;;4975541;28;20056;-89
2021/01/08 01:02:31;;;;;;;5.63;1.60;;;1.30;87.80;;;;;;4998732;28;20054;-88
2021/01/08 01:04:58;;;;;;;4.30;1.77;;;1.30;87.80;;;;;;4983015;28;20049;-88
2021/01/08 01:07:24;;;;;;;2.30;0.93;;;1.40;87.70;;;;;;4980596;28;20034;-89
2021/01/08 01:09:51;;;;;;;4.27;1.43;;;1.40;87.70;;;;;;4980657;28;20038;-89
2021/01/08 01:12:17;;;;;;;2.13;1.20;;;1.40;87.80;;;;;;4964529;28;20050;-88
2021/01/08 01:14:44;;;;;;;11.03;1.60;;;1.50;87.60;;;;;;4979944;28;20060;-88
2021/01/08 01:17:11;;;;;;;3.83;1.40;;;1.40;87.60;;;;;;4963809;28;20310;-89
2021/01/08 01:19:37;;;;;;;4.57;0.77;;;1.40;87.60;;;;;;4963767;28;20046;-87
2021/01/08 01:22:04;;;;;;;6.10;1.70;;;1.40;87.70;;;;;;4973569;28;20184;-89
2021/01/08 01:27:38;;;;;;;0.40;0.37;;;1.40;87.80;;;;;;4954137;28;20050;-88
2021/01/08 01:30:07;;;;;;;2.25;0.52;;;1.30;87.80;;;;;;4984772;28;20033;-88
2021/01/08 01:32:33;;;;;;;3.63;1.53;;;1.30;87.90;;;;;;4984452;28;20042;-88
2021/01/08 01:37:35;;;;;;;2.80;1.17;;;1.30;87.90;;;;;;5472529;23;20067;-91
2021/01/08 01:40:02;;;;;;;2.90;1.33;;;1.30;87.90;;;;;;4993955;28;20034;-88
2021/01/08 01:42:28;;;;;;;7.30;1.77;;;1.30;87.80;;;;;;5038900;28;20036;-88
2021/01/08 01:44:54;;;;;;;3.57;0.77;;;1.40;87.80;;;;;;5042038;28;20037;-87
2021/01/08 01:47:21;;;;;;;3.30;1.80;;;1.30;87.70;;;;;;5022530;28;20029;-87
2021/01/08 01:49:48;;;;;;;1.13;0.37;;;1.40;87.70;;;;;;5036297;28;20048;-87
2021/01/08 01:52:15;;;;;;;4.00;1.97;;;1.40;87.60;;;;;;5020387;28;20034;-87
2021/01/08 01:54:41;;;;;;;0.77;0.50;;;1.50;87.50;;;;;;5000218;28;20037;-92
2021/01/08 01:57:07;;;;;;;6.03;1.77;;;1.50;87.30;;;;;;5009515;28;20063;-92
2021/01/08 01:59:34;;;;;;;2.67;0.67;;;1.60;87.20;;;;;;5029073;28;20071;-92
2021/01/08 02:02:01;;;;;;;2.77;1.43;;;1.60;87.10;;;;;;4992658;28;20044;-92
2021/01/08 02:04:27;;;;;;;2.13;0.60;;;1.60;87.10;;;;;;5013415;28;20049;-91
2021/01/08 02:06:53;;;;;;;2.20;1.10;;;1.60;87.10;;;;;;5030028;28;20033;-92
2021/01/08 02:09:20;;;;;;;6.10;1.60;;;1.70;86.90;;;;;;5007380;28;20040;-91
2021/01/08 02:11:48;;;;;;;6.37;0.53;;;1.70;86.80;;;;;;4996270;28;20121;-91
2021/01/08 02:14:18;;;;;;;2.10;0.83;;;1.70;86.70;;;;;;5015533;28;20037;-91
2021/01/08 02:16:45;;;;;;;0.93;0.20;;;1.70;86.70;;;;;;5032038;28;20029;-90
2021/01/08 02:19:25;;;;;;;3.70;0.60;;;1.70;86.70;;;;;;4994215;28;20668;-88
2021/01/08 02:21:54;;;;;;;1.70;0.20;;;1.80;86.70;;;;;;5013595;28;20049;-89
2021/01/08 02:24:36;;;;;;;14.00;1.70;;;1.80;86.70;;;;;;4993529;28;20048;-89
2021/01/08 02:27:02;;;;;;;0.50;0.30;;;1.80;86.60;;;;;;5009794;28;20064;-88
2021/01/08 02:29:28;;;;;;;9.17;1.93;;;1.90;86.60;;;;;;5028474;28;20037;-88
2021/01/08 02:31:55;;;;;;;0.77;0.57;;;1.80;86.40;;;;;;5009539;28;20033;-87
2021/01/08 02:34:23;;;;;;;3.57;1.03;;;1.80;86.40;;;;;;5012050;28;20033;-89
2021/01/08 02:36:49;;;;;;;1.77;0.87;;;1.90;86.50;;;;;;5022742;28;20052;-90
2021/01/08 02:39:15;;;;;;;1.43;0.80;;;1.90;86.40;;;;;;5031884;28;20049;-89
2021/01/08 02:41:42;;;;;;;0.50;0.30;;;1.90;86.40;;;;;;5007309;28;20024;-89
2021/01/08 02:44:09;;;;;;;4.33;2.17;;;1.90;86.40;;;;;;4989695;28;20029;-89
2021/01/08 02:46:35;;;;;;;3.83;1.13;;;1.90;86.40;;;;;;4999714;28;20033;-91
2021/01/08 02:49:02;;;;;;;0.63;0.63;;;1.90;86.40;;;;;;4992702;28;20532;-92
2021/01/08 02:51:28;;;;;;;1.57;1.20;;;1.90;86.60;;;;;;5002433;28;20034;-92
2021/01/08 02:53:55;;;;;;;1.13;1.03;;;1.90;86.60;;;;;;4994244;28;20033;-91
2021/01/08 02:56:24;;;;;;;2.67;1.17;;;1.80;86.70;;;;;;5024068;28;20391;-91
2021/01/08 02:58:50;;;;;;;2.47;1.53;;;1.80;86.80;;;;;;4993238;28;20049;-91
2021/01/08 03:01:17;;;;;;;7.43;1.57;;;1.80;87.00;;;;;;5009404;28;20036;-93
2021/01/08 03:03:59;;;;;;;3.10;1.30;;;1.70;87.10;;;;;;5022858;28;20026;-91
2021/01/08 03:06:27;;;;;;;0.80;0.50;;;1.70;87.20;;;;;;5018528;28;20038;-92
2021/01/08 03:08:54;;;;;;;2.47;1.57;;;1.60;87.20;;;;;;5026704;28;20044;-92
2021/01/08 03:11:20;;;;;;;4.10;1.23;;;1.60;87.50;;;;;;4988921;28;20034;-93
2021/01/08 03:13:46;;;;;;;16.67;0.53;;;1.50;87.60;;;;;;4987423;28;20040;-92
2021/01/08 03:16:13;;;;;;;3.10;1.27;;;1.50;87.70;;;;;;5011581;28;20028;-92
2021/01/08 03:18:40;;;;;;;1.30;0.80;;;1.50;87.90;;;;;;5015771;28;20037;-91
2021/01/08 03:21:06;;;;;;;3.57;1.40;;;1.40;87.90;;;;;;4998003;28;20033;-90
2021/01/08 03:23:33;;;;;;;4.73;1.93;;;1.30;88.00;;;;;;4991527;28;20052;-90
2021/01/08 03:25:59;;;;;;;2.93;1.23;;;1.30;88.10;;;;;;5048037;28;20646;-89
2021/01/08 03:28:27;;;;;;;1.27;1.17;;;1.30;88.20;;;;;;5032273;28;20041;-87
2021/01/08 03:30:53;;;;;;;1.33;1.00;;;1.30;88.30;;;;;;5031800;28;20041;-88
2021/01/08 03:33:20;;;;;;;2.73;0.90;;;1.20;88.30;;;;;;5019819;28;20024;-87
2021/01/08 03:35:46;;;;;;;3.73;2.10;;;1.10;88.40;;;;;;5001342;28;20044;-87
2021/01/08 03:38:12;;;;;;;4.60;1.70;;;1.10;88.50;;;;;;5018080;28;20439;-87
2021/01/08 03:40:41;;;;;;;5.83;1.50;;;1.10;88.60;;;;;;5001365;28;20028;-89
2021/01/08 03:43:09;;;;;;;1.70;1.03;;;1.10;88.70;;;;;;5012321;28;20025;-89
2021/01/08 03:45:35;;;;;;;3.50;1.40;;;1.00;88.60;;;;;;5014177;28;20032;-86
2021/01/08 03:48:02;;;;;;;7.13;2.73;;;1.00;88.60;;;;;;5035546;28;20040;-88
2021/01/08 03:50:28;;;;;;;4.00;2.00;;;1.00;88.70;;;;;;5004286;28;20044;-89
2021/01/08 03:52:54;;;;;;;18.63;1.53;;;1.00;88.80;;;;;;5032191;28;20037;-88
2021/01/08 03:55:21;;;;;;;2.43;1.13;;;0.90;88.70;;;;;;5005642;28;20036;-89
2021/01/08 03:57:47;;;;;;;10.77;1.73;;;0.90;88.80;;;;;;5020773;28;20036;-89
2021/01/08 04:00:14;;;;;;;1.70;0.80;;;0.90;88.80;;;;;;5004866;28;20047;-89
2021/01/08 04:02:40;;;;;;;2.50;1.03;;;0.90;88.80;;;;;;5032584;28;20438;-89
2021/01/08 04:05:07;;;;;;;4.90;1.83;;;0.90;88.70;;;;;;5015952;28;20037;-90
2021/01/08 04:07:33;;;;;;;2.00;1.03;;;0.90;88.60;;;;;;5023385;28;20448;-89
2021/01/08 04:10:00;;;;;;;5.73;1.93;;;1.00;88.60;;;;;;5038481;28;20304;-89
2021/01/08 04:12:26;;;;;;;2.83;1.07;;;1.00;88.40;;;;;;4999946;28;20053;-91
2021/01/08 04:14:53;;;;;;;2.60;2.00;;;1.00;88.30;;;;;;5023828;28;20851;-88
2021/01/08 04:17:19;;;;;;;6.53;0.97;;;1.10;88.20;;;;;;4971143;28;20042;-90
2021/01/08 04:19:45;;;;;;;5.63;1.60;;;1.10;88.00;;;;;;4986617;28;20041;-90
2021/01/08 04:22:12;;;;;;;1.87;0.80;;;1.20;87.90;;;;;;4996737;28;20030;-89
2021/01/08 04:24:38;;;;;;;1.40;1.00;;;1.20;87.70;;;;;;4988725;28;20080;-87
2021/01/08 04:27:04;;;;;;;1.43;1.30;;;1.20;87.60;;;;;;4986285;28;20041;-88
2021/01/08 04:29:31;;;;;;;2.97;1.30;;;1.20;87.60;;;;;;5018620;28;20344;-87
2021/01/08 04:31:57;;;;;;;3.93;1.10;;;1.30;87.50;;;;;;4979782;28;20060;-88
2021/01/08 04:34:23;;;;;;;3.27;1.03;;;1.30;87.50;;;;;;4998476;28;20036;-87
2021/01/08 04:36:50;;;;;;;1.70;1.30;;;1.30;87.50;;;;;;4980727;28;20049;-87
2021/01/08 04:39:16;;;;;;;4.37;2.27;;;1.40;87.40;;;;;;5030741;28;20021;-87
2021/01/08 04:41:42;;;;;;;1.30;0.57;;;1.40;87.20;;;;;;4978198;28;20061;-87
2021/01/08 04:44:09;;;;;;;1.73;1.07;;;1.40;87.10;;;;;;4979247;28;20022;-87
2021/01/08 04:46:35;;;;;;;2.73;1.53;;;1.40;87.00;;;;;;5010452;28;20037;-87
2021/01/08 04:49:04;;;;;;;0.63;0.50;;;1.50;87.10;;;;;;4981458;28;20038;-88
2021/01/08 04:51:31;;;;;;;4.20;2.10;;;1.50;87.10;;;;;;4994936;28;20041;-87
2021/01/08 04:53:57;;;;;;;5.60;2.10;;;1.50;87.10;;;;;;4962287;28;20033;-86
2021/01/08 04:56:26;;;;;;;1.23;0.83;;;1.50;87.10;;;;;;4983211;28;20408;-90
2021/01/08 04:58:53;;;;;;;2.20;1.13;;;1.50;87.80;;;;;;4979501;28;20030;-86
2021/01/08 05:01:19;;;;;;;2.33;1.30;;;1.60;87.00;;;;;;5021881;28;20040;-88
2021/01/08 05:03:46;;;;;;;4.63;2.23;;;1.60;86.90;;;;;;5053117;28;20419;-87
2021/01/08 05:06:13;;;;;;;1.83;0.90;;;1.60;86.90;;;;;;5008416;28;20025;-89
2021/01/08 05:08:39;;;;;;;1.63;1.27;;;1.60;86.80;;;;;;5033025;28;20038;-88
2021/01/08 05:11:22;;;;;;;6.67;2.00;;;1.60;86.80;;;;;;5023892;28;20442;-90
2021/01/08 05:14:47;;;;;;;2.40;1.07;;;1.60;86.80;;;;;;5028967;28;20026;-88
2021/01/08 05:17:14;;;;;;;1.17;0.93;;;1.60;86.80;;;;;;4985530;28;20037;-88
2021/01/08 05:19:46;;;;;;;4.57;1.90;;;1.60;86.90;;;;;;5004038;28;20045;-87
2021/01/08 05:22:13;;;;;;;4.30;1.37;;;1.60;86.90;;;;;;4995421;28;20045;-90
2021/01/08 05:24:39;;;;;;;11.27;3.30;;;1.50;87.00;;;;;;4998671;28;20077;-89
2021/01/08 05:27:06;;;;;;;18.83;4.20;;;1.50;87.10;;;;;;5015634;28;20033;-87
2021/01/08 05:29:32;;;;;;;13.00;3.37;;;1.50;87.20;;;;;;5030508;28;20058;-88
2021/01/08 05:31:59;;;;;;;4.00;1.00;;;1.40;87.40;;;;;;4998152;28;20037;-87
2021/01/08 05:34:29;;;;;;;9.37;2.37;;;1.30;87.50;;;;;;4998726;28;20045;-89
2021/01/08 05:36:57;;;;;;;3.73;1.37;;;1.30;87.70;;;;;;5015147;28;20037;-88
2021/01/08 05:39:23;;;;;;;3.43;1.70;;;1.20;87.80;;;;;;5015946;28;20029;-89
2021/01/08 05:41:50;;;;;;;3.73;1.57;;;1.20;88.00;;;;;;5001430;28;20041;-89
2021/01/08 05:44:16;;;;;;;4.13;0.70;;;1.10;88.10;;;;;;5018054;28;20053;-88
2021/01/08 05:46:43;;;;;;;3.60;1.30;;;1.10;88.20;;;;;;5021370;28;20029;-89
2021/01/08 05:49:10;;;;;;;1.80;0.83;;;1.10;88.30;;;;;;5002482;28;20046;-89
2021/01/08 05:51:37;;;;;;;4.67;1.30;;;1.00;88.30;;;;;;5051632;28;20037;-89
2021/01/08 05:54:04;;;;;;;1.70;1.43;;;1.00;88.40;;;;;;5003227;28;20038;-89
2021/01/08 05:56:37;;;;;;;4.53;1.13;;;1.00;88.40;;;;;;5028703;28;20038;-90
2021/01/08 05:59:07;;;;;;;1.70;0.97;;;0.90;88.50;;;;;;5011172;28;20026;-90
2021/01/08 06:01:34;;;;;;;4.60;2.00;;;0.90;88.60;;;;;;5028961;28;20049;-91
2021/01/08 06:04:03;;;;;;;14.57;2.13;;;0.80;88.70;;;;;;5028919;28;20143;-89
2021/01/08 06:06:40;;;;;;;1.87;0.70;;;0.80;88.80;;;;;;5001701;28;20054;-92
2021/01/08 06:09:06;;;;;;;3.77;0.97;;;0.70;88.90;;;;;;5016780;28;20046;-92
2021/01/08 06:11:35;;;;;;;2.60;1.13;;;0.60;89.00;;;;;;5050217;28;20053;-89
2021/01/08 06:14:01;;;;;;;2.80;1.57;;;0.60;89.10;;;;;;5016641;28;20029;-91
2021/01/08 06:16:35;;;;;;;2.90;1.53;;;0.60;89.10;;;;;;5017140;28;20421;-91
2021/01/08 06:19:02;;;;;;;1.67;0.83;;;0.60;89.30;;;;;;5013503;28;20034;-91
2021/01/08 06:21:35;;;;;;;4.70;1.93;;;0.50;89.30;;;;;;4997691;28;20046;-89
2021/01/08 06:24:02;;;;;;;2.77;0.50;;;0.50;89.30;;;;;;5012570;28;20038;-88
2021/01/08 06:26:30;;;;;;;5.80;2.03;;;0.50;89.20;;;;;;5014001;28;20050;-89
2021/01/08 06:29:03;;;;;;;5.10;1.87;;;0.50;89.20;;;;;;5014559;28;20038;-92
2021/01/08 06:31:48;;;;;;;9.27;1.90;;;0.50;89.10;;;;;;5032909;28;20052;-90
2021/01/08 06:34:24;;;;;;;5.37;1.30;;;0.50;89.10;;;;;;4976517;28;20046;-90
2021/01/08 06:37:11;;;;;;;1.67;0.77;;;0.50;89.10;;;;;;5017830;28;20046;-89
2021/01/08 06:39:45;;;;;;;9.03;1.77;;;0.40;89.10;;;;;;4999428;28;20029;-90
2021/01/08 06:42:28;;;;;;;1.60;1.17;;;0.40;89.30;;;;;;5030997;28;20046;-88
2021/01/08 06:44:55;;;;;;;2.30;1.67;;;0.40;89.30;;;;;;4998533;28;20068;-87
2021/01/08 06:47:21;;;;;;;2.30;1.23;;;0.30;89.30;;;;;;4998023;28;20037;-90
2021/01/08 06:49:51;;;;;;;1.00;0.90;;;0.30;89.40;;;;;;5014069;28;20042;-88
2021/01/08 06:52:18;;;;;;;3.30;1.30;;;0.20;89.50;;;;;;4998257;28;20154;-89
2021/01/08 06:54:45;;;;;;;1.67;1.03;;;0.20;89.50;;;;;;5031495;28;20041;-89
2021/01/08 06:57:17;;;;;;;2.87;1.63;;;0.20;89.60;;;;;;5017318;28;20057;-89
2021/01/08 07:00:02;;;;;;;5.50;2.37;;;0.20;89.60;;;;;;5014953;28;20081;-90
2021/01/08 07:02:28;;;;;;;2.00;1.07;;;0.20;89.60;;;;;;5000760;28;20037;-89
2021/01/08 07:04:55;;;;;;;5.90;1.40;;;0.20;89.50;;;;;;5007027;28;20045;-91
2021/01/08 07:07:22;;;;;;;2.13;1.33;;;0.20;89.40;;;;;;5006865;28;20041;-90
2021/01/08 07:09:49;;;;;;;5.23;1.00;;;0.20;89.20;;;;;;4994463;28;20056;-90
2021/01/08 07:12:57;;;;;;;4.60;2.13;;;0.20;89.20;;;;;;5007623;28;20044;-88
2021/01/08 07:15:25;;;;;;;1.23;0.97;;;0.20;89.10;;;;;;4936133;28;20433;-89
2021/01/08 07:17:54;;;;;;;3.97;2.63;;;0.20;89.20;;;;;;4983418;28;20045;-88
2021/01/08 07:20:21;;;;;;;1.70;1.43;;;0.10;89.20;;;;;;4986312;28;20463;-88
2021/01/08 07:22:51;;;;;;;2.60;1.10;;;0.10;89.20;;;;;;4996775;28;20042;-89
2021/01/08 07:25:22;;;;;;;1.08;0.98;;;0.10;89.40;;;;;;4968917;28;20061;-90
2021/01/08 07:27:49;;;;;;;3.00;1.83;;;0.00;89.40;;;;;;4999525;28;20053;-88
2021/01/08 07:30:15;;;;;;;3.50;2.03;;;0.00;89.50;;;;;;4965190;28;20057;-92
2021/01/08 07:32:43;;;;;;;14.53;1.97;;;0.00;89.50;;;;;;4983894;28;20033;-87
2021/01/08 07:35:29;;;;;;;3.40;1.60;;;0.10;89.40;;;;;;4986732;28;20618;-87
2021/01/08 07:38:00;;;;;;;9.43;2.13;;;0.10;89.30;;;;;;5000548;28;20046;-87
2021/01/08 07:40:31;;;;;;;7.30;2.20;;;0.10;89.10;;;;;;5016240;28;20037;-88
2021/01/08 07:42:58;;;;;;;;;;;0.20;89.00;;;;;;4984419;28;20173;-87
2021/01/08 07:45:48;;;;;;;11.57;1.70;;;0.10;88.90;;;;;;5023484;28;19909;-90
2021/01/08 07:48:25;;;;;;;2.25;0.90;;;0.20;88.90;;;;;;5023362;28;20420;-90
2021/01/08 07:50:59;;;;;;;5.47;1.63;;;0.20;88.80;;;;;;4999932;28;20040;-88
2021/01/08 07:53:55;;;;;;;8.33;2.83;;;0.20;89.10;;;;;;5006139;28;20037;-89
2021/01/08 07:56:22;;;;;;;2.47;1.27;;;0.20;88.60;;;;;;5018545;28;20044;-89
2021/01/08 07:58:54;;;;;;;3.17;1.37;;;0.20;88.50;;;;;;5003959;28;20037;-88
2021/01/08 08:01:31;;;;;;;3.47;2.23;;;0.30;88.50;;;;;;5033442;28;20040;-90
2021/01/08 08:04:02;;;;;;;0.50;0.30;;;0.20;88.50;;;;;;5004678;28;20041;-89
2021/01/08 08:06:39;;;;;;;;;;;;;;;;;;;;;
2021/01/08 08:09:07;;;;;;;1.83;0.80;;;2.70;84.60;;;;;;5019288;28;20032;-87
2021/01/08 08:11:35;;;;;;;6.80;2.23;;;3.80;81.50;;;;;;5003586;28;20057;-89
2021/01/08 08:14:05;;;;;;;3.53;1.33;;;4.60;79.80;;;;;;5005684;28;20033;-89
2021/01/08 08:17:09;;;;;;;3.17;1.37;;;5.00;78.70;;;;;;5000527;28;20031;-91
2021/01/08 08:20:02;;;;;;;;;;;;;;;;;;;;;
2021/01/08 08:23:02;;;;;;;3.07;1.13;;;5.80;78.00;;;;;;5033596;28;20030;-92
2021/01/08 08:26:29;;;;;;;4.70;1.17;;;6.00;78.30;;;;;;4994220;28;20041;-90
2021/01/08 08:29:45;;;;;;;3.77;1.77;;;6.20;78.50;;;;;;5027186;28;20407;-91
2021/01/08 08:32:14;;;;;;;3.30;1.23;;;6.20;79.30;;;;;;4955820;28;20049;-90
2021/01/08 08:34:54;;;;;;;5.00;1.13;;;6.10;79.80;;;;;;5011015;28;20052;-90
2021/01/08 08:40:07;;;;;;;13.00;1.13;;;6.30;80.40;;;;;;4982989;28;20415;-89
2021/01/08 08:42:34;;;;;;;3.60;1.00;;;6.30;80.60;;;;;;5006104;28;20046;-88
2021/01/08 08:45:03;;;;;;;1.33;0.83;;;6.40;80.70;;;;;;4985146;28;20057;-89
2021/01/08 08:47:54;;;;;;;0.57;0.37;;;6.50;80.70;;;;;;4985960;28;20045;-89
2021/01/08 08:50:21;;;;;;;;;;;6.70;80.60;;;;;;4983799;28;20336;-90
2021/01/08 08:52:50;;;;;;;14.47;2.00;;;6.90;80.30;;;;;;5034317;28;20295;-91
2021/01/08 08:55:32;;;;;;;4.00;1.40;;;7.00;80.20;;;;;;4966207;28;20420;-89
2021/01/08 08:58:11;;;;;;;14.63;2.73;;;7.20;80.10;;;;;;4976559;28;20041;-89
2021/01/08 09:00:39;;;;;;;5.13;1.33;;;7.40;80.00;;;;;;4974431;28;20035;-89
2021/01/08 09:03:21;;;;;;;13.03;1.67;;;7.40;79.90;;;;;;4969497;28;20035;-89
2021/01/08 09:05:58;;;;;;;1.93;1.23;;;7.40;80.20;;;;;;4973452;28;20569;-90
2021/01/08 09:08:31;;;;;;;9.00;1.43;;;7.40;80.60;;;;;;4974321;28;20030;-89
2021/01/08 09:11:05;;;;;;;5.47;2.40;;;7.50;80.40;;;;;;4964985;28;20043;-89
2021/01/08 09:13:56;;;;;;;4.03;1.50;;;7.50;80.30;;;;;;4974835;28;20038;-88
2021/01/08 09:16:40;;;;;;;3.28;1.48;;;7.60;80.10;;;;;;4975570;28;20034;-89
2021/01/08 09:19:08;;;;;;;5.97;0.97;;;7.50;80.20;;;;;;4972064;28;20035;-88
2021/01/08 09:21:39;;;;;;;2.77;1.97;;;7.50;80.40;;;;;;4963147;28;20460;-89
2021/01/08 09:24:06;;;;;;;;;;;7.20;80.20;;;;;;4973931;28;20027;-88
2021/01/08 09:26:33;;;;;;;4.73;1.63;;;6.40;81.80;;;;;;4974454;28;19910;-90
2021/01/08 09:28:59;;;;;;;1.90;1.13;;;5.70;84.70;;;;;;4975483;28;20410;-89
2021/01/08 09:31:51;;;;;;;3.00;1.73;;;5.00;85.80;;;;;;4975557;28;20051;-91
2021/01/08 09:34:18;;;;;;;9.57;2.07;;;4.40;87.40;;;;;;4997544;28;20037;-90
2021/01/08 09:36:47;;;;;;;4.10;1.77;;;4.10;88.10;;;;;;4984866;28;20539;-90
2021/01/08 09:39:13;;;;;;;4.87;1.47;;;3.90;88.50;;;;;;4996807;28;20029;-88
2021/01/08 09:41:41;;;;;;;5.20;1.53;;;3.80;88.60;;;;;;4983895;28;20569;-87
2021/01/08 09:44:11;;;;;;;4.70;1.57;;;3.70;88.60;;;;;;4998508;28;20025;-87
2021/01/08 09:46:54;;;;;;;1.80;1.00;;;3.60;88.50;;;;;;4992682;28;20034;-89
2021/01/08 09:49:22;;;;;;;4.37;1.37;;;3.50;88.40;;;;;;5000257;28;20041;-87
2021/01/08 09:51:59;;;;;;;1.90;0.80;;;3.30;88.20;;;;;;5001599;28;20424;-89
2021/01/08 09:54:47;;;;;;;0.77;0.57;;;3.00;88.60;;;;;;4984442;28;20033;-90
2021/01/08 09:57:30;;;;;;;3.70;2.03;;;2.80;88.80;;;;;;5016739;28;20433;-90
2021/01/08 09:59:58;;;;;;;8.37;0.93;;;2.60;89.10;;;;;;5002504;28;20037;-89
2021/01/08 10:02:40;;;;;;;3.70;1.10;;;2.50;89.20;;;;;;4998808;28;20029;-88
2021/01/08 10:05:19;;;;;;;3.47;1.17;;;2.60;89.00;;;;;;5000341;28;20037;-89
2021/01/08 10:07:46;;;;;;;13.87;0.80;;;2.60;88.70;;;;;;5013285;28;20407;-88
2021/01/08 10:10:13;;;;;;;2.10;0.90;;;2.70;88.50;;;;;;5004568;28;20033;-87
2021/01/08 10:12:44;;;;;;;3.53;1.67;;;2.60;87.90;;;;;;5003186;28;20033;-88
2021/01/08 10:15:12;;;;;;;4.43;1.10;;;2.60;87.90;;;;;;5000804;28;20044;-87
2021/01/08 10:17:51;;;;;;;2.30;1.40;;;2.60;87.90;;;;;;4997845;28;20045;-87
2021/01/08 10:20:19;;;;;;;3.83;2.10;;;2.50;87.70;;;;;;4999150;28;20419;-88
2021/01/08 10:22:51;;;;;;;7.40;2.40;;;2.60;87.80;;;;;;4984359;28;20037;-88
2021/01/08 10:25:30;;;;;;;3.70;1.03;;;2.60;87.70;;;;;;5001782;28;20460;-88
2021/01/08 10:28:20;;;;;;;4.93;1.63;;;2.70;87.30;;;;;;4994931;28;20037;-88
2021/01/08 10:30:47;;;;;;;0.60;0.60;;;2.80;86.80;;;;;;5009476;28;20034;-88
2021/01/08 10:33:14;;;;;;;1.93;0.97;;;2.80;86.50;;;;;;4994248;28;20030;-90
2021/01/08 10:35:51;;;;;;;1.37;0.60;;;2.80;86.50;;;;;;5010081;28;20042;-89
2021/01/08 10:38:17;;;;;;;4.43;2.60;;;2.80;86.60;;;;;;5000688;28;20053;-90
2021/01/08 10:40:44;;;;;;;8.00;1.40;;;2.90;86.50;;;;;;5031075;28;20030;-88
2021/01/08 10:43:10;;;;;;;4.63;1.73;;;3.10;85.90;;;;;;5027902;28;20428;-89
2021/01/08 10:45:40;;;;;;;4.07;2.47;;;3.20;85.50;;;;;;5014181;28;20045;-91
2021/01/08 10:48:07;;;;;;;4.07;0.90;;;3.20;85.50;;;;;;4998146;28;20431;-87
2021/01/08 10:50:33;;;;;;;5.53;2.13;;;3.30;85.30;;;;;;5031671;28;20049;-89
2021/01/08 10:53:00;;;;;;;15.33;3.60;;;3.30;85.10;;;;;;5014644;28;20042;-88
2021/01/08 10:55:27;;;;;;;3.10;2.50;;;3.40;85.00;;;;;;4998968;28;20046;-91
2021/01/08 10:57:58;;;;;;;0.80;0.70;;;3.40;85.80;;;;;;5002170;28;20045;-91
2021/01/08 11:00:34;;;;;;;;;;;3.60;84.90;;;;;;5016006;28;20099;-92
2021/01/08 11:03:00;;;;;;;1.00;0.90;;;3.60;84.80;;;;;;5012815;28;19909;-92
2021/01/08 11:05:30;;;;;;;3.03;1.17;;;3.60;84.40;;;;;;5032605;28;20359;-89
2021/01/08 11:07:56;;;;;;;0.40;0.23;;;3.50;84.70;;;;;;4997760;28;20442;-88
2021/01/08 11:10:23;;;;;;;3.27;1.97;;;3.60;84.60;;;;;;5014580;28;20045;-89
2021/01/08 11:12:49;;;;;;;3.50;1.10;;;3.40;84.70;;;;;;4984338;28;20419;-89
2021/01/08 11:15:16;;;;;;;8.57;1.63;;;3.40;85.00;;;;;;4996919;28;20033;-88
2021/01/08 11:17:42;;;;;;;2.97;1.40;;;3.30;85.00;;;;;;5014077;28;20066;-88
2021/01/08 11:20:12;;;;;;;1.27;1.00;;;3.20;85.40;;;;;;5015861;28;20029;-90
2021/01/08 11:22:41;;;;;;;3.73;1.27;;;3.20;85.40;;;;;;5013130;28;20042;-90
2021/01/08 11:25:08;;;;;;;3.77;0.50;;;3.20;85.40;;;;;;4998423;28;20412;-90
2021/01/08 11:27:34;;;;;;;6.20;2.47;;;3.30;85.40;;;;;;4997207;28;20038;-86
2021/01/08 11:30:01;;;;;;;5.40;1.20;;;3.40;85.00;;;;;;5014035;28;20037;-86
2021/01/08 11:32:30;;;;;;;10.97;1.13;;;3.60;85.00;;;;;;5014686;28;20030;-88
2021/01/08 11:34:56;;;;;;;3.40;1.60;;;3.80;84.40;;;;;;5044901;28;20026;-88
2021/01/08 11:37:25;;;;;;;2.10;1.37;;;3.90;83.90;;;;;;4992732;28;20041;-88
2021/01/08 11:40:03;;;;;;;1.87;1.53;;;3.90;83.80;;;;;;5006265;28;20022;-87
2021/01/08 11:43:16;;;;;;;1.90;0.77;;;4.00;83.80;;;;;;4973082;28;20440;-89
2021/01/08 11:57:14;;;;;;;16.57;2.47;;;4.90;82.40;;;;;;4888949;29;20040;-90
2021/01/08 12:00:12;;;;;;;4.07;1.13;;;5.20;81.10;;;;;;4867645;29;20581;-89
2021/01/08 12:02:47;;;;;;;9.77;1.70;;;5.00;81.70;;;;;;4850198;29;20044;-88
2021/01/08 12:05:25;;;;;;;1.00;0.97;;;5.10;82.10;;;;;;4839805;29;20689;-89
2021/01/08 12:15:23;;;;;;;;;;;;;;;;;;;;;
2021/01/08 12:19:29;;;;;;;;;;;;;;;;;;;;;
2021/01/08 12:21:57;;;;;;;;;;;;;;;;;;;;;
2021/01/08 12:24:47;;;;;;;2.03;1.53;;;4.40;83.70;;;;;;4997427;28;20037;-89
2021/01/08 12:27:41;;;;;;;0.73;0.47;;;4.20;84.20;;;;;;5018295;28;20040;-88
2021/01/08 12:37:53;;;;;;;10.07;1.57;;;3.90;84.80;;;;;;5019855;23;20065;-88
2021/01/08 12:40:51;;;;;;;3.13;1.30;;;4.00;84.90;;;;;;4976455;28;20043;-89
2021/01/08 12:44:14;;;;;;;;;;;;;;;;;;;;;
2021/01/08 12:47:08;;;;;;;1.67;0.87;;;3.80;84.70;;;;;;4981471;28;20042;-89
2021/01/08 12:50:41;;;;;;;;;;;;;;;;;;;;;
2021/01/08 13:11:46;;;;;;;8.93;0.60;;;3.40;85.60;;;;;;4945315;28;20036;-86
2021/01/08 13:14:19;;;;;;;0.65;0.57;;;3.40;85.70;;;;;;4931532;29;20043;-88
2021/01/08 13:16:49;;;;;;;0.00;0.00;;;3.30;85.70;;;;;;4922329;28;20028;-88
2021/01/08 13:19:29;;;;;;;0.30;0.10;;;3.20;85.80;;;;;;4906190;29;20058;-88
2021/01/08 13:21:58;;;;;;;11.67;2.93;;;3.10;86.00;;;;;;4937021;29;20322;-89
2021/01/08 13:24:27;;;;;;;0.00;0.00;;;3.10;86.30;;;;;;4911278;29;20063;-89
2021/01/08 13:26:56;;;;;;;0.67;0.60;;;3.00;86.20;;;;;;4993130;28;20037;-88
2021/01/08 13:29:25;;;;;;;0.27;0.13;;;2.90;86.40;;;;;;4975267;28;20034;-88
2021/01/08 13:31:54;;;;;;;0.43;0.40;;;2.80;86.80;;;;;;4966976;28;20089;-89
2021/01/08 13:34:21;;;;;;;0.10;0.10;;;2.70;86.90;;;;;;4980155;28;20045;-90
2021/01/08 13:36:50;;;;;;;1.07;0.20;;;2.70;87.00;;;;;;4993456;28;20539;-89
2021/01/08 13:39:22;;;;;;;9.83;1.87;;;2.70;87.10;;;;;;4992930;28;20037;-89
2021/01/08 13:42:02;;;;;;;0.13;0.03;;;2.70;87.10;;;;;;5006542;28;20064;-89
2021/01/08 13:44:28;;;;;;;2.33;1.07;;;2.70;87.10;;;;;;4983241;28;20051;-87
2021/01/08 13:47:22;;;;;;;1.50;0.83;;;2.60;87.10;;;;;;5015921;28;20106;-88
2021/01/08 13:49:49;;;;;;;0.83;0.43;;;2.50;87.20;;;;;;5011404;28;20037;-88
2021/01/08 13:52:16;;;;;;;0.50;0.27;;;2.50;87.40;;;;;;5024029;28;20033;-87
2021/01/08 13:54:42;;;;;;;1.93;0.57;;;2.40;87.50;;;;;;5023478;28;20042;-88
2021/01/08 13:57:10;;;;;;;0.10;0.10;;;2.30;87.60;;;;;;5015878;28;20037;-89
2021/01/08 13:59:56;;;;;;;2.20;1.13;;;2.20;87.70;;;;;;5020752;28;20048;-90
2021/01/08 14:02:23;;;;;;;2.83;1.23;;;2.20;87.90;;;;;;5021738;28;20050;-89
2021/01/08 14:04:54;;;;;;;10.13;1.83;;;2.20;87.90;;;;;;5015181;28;20040;-88
2021/01/08 14:07:28;;;;;;;;;;;2.30;87.70;;;;;;5006845;28;20037;-88
2021/01/08 14:10:12;;;;;;;2.33;0.30;;;2.30;87.60;;;;;;5015096;28;19957;-90
2021/01/08 14:12:38;;;;;;;1.30;0.73;;;2.30;87.60;;;;;;5006589;28;20036;-89
2021/01/08 14:15:20;;;;;;;0.20;0.10;;;2.20;87.60;;;;;;5021368;28;20029;-89
2021/01/08 14:17:49;;;;;;;4.35;1.10;;;2.10;87.80;;;;;;5000311;28;20033;-89
2021/01/08 14:20:55;;;;;;;0.00;0.00;;;2.10;88.60;;;;;;4980174;28;20046;-89
2021/01/08 14:23:25;;;;;;;1.20;0.70;;;2.20;88.00;;;;;;5000622;28;20034;-88
2021/01/08 14:26:12;;;;;;;0.00;0.00;;;2.00;87.90;;;;;;5008012;28;20041;-90